AirNav   Air Wisconsin Up To $57,000 Bonus
 
 1308 users online  

SC70 Anna's Airport
Walhalla, South Carolina, USA

GOING TO WALHALLA?


FAA INFORMATION EFFECTIVE 04 NOVEMBER 2021

Location

FAA Identifier: SC70
Lat/Long: 34-43-30.0000N 083-05-06.0000W
34-43.500000N 083-05.100000W
34.7250000,-83.0850000
(estimated)
Elevation: 930 ft. / 283 m (estimated)
Variation: 04W (1995)
From city: 3 miles NE of WALHALLA, SC
Time zone: UTC -4 (UTC -5 during Standard Time)
Zip code: 29691

Airport Operations

Airport use: Private use. Permission required prior to landing
Activation date: 06/1998
Control tower: no
ARTCC: ATLANTA CENTER
FSS: ANDERSON FLIGHT SERVICE STATION
Attendance: UNATNDD
Wind indicator: no
Segmented circle: no

Airport Communications

WX ASOS at CEU (10 nm E): 119.275 (864-653-8855)
WX AWOS-3 at TOC (13 nm SW): 119.625 (706-297-7473)
WX AWOS-3 at LQK (20 nm E): 120.0 (864-843-5801)

Nearby radio navigation aids

VOR radial/distance  VOR name  Freq  Var
ODFr081/10.6FOOTHILLS VOR/DME113.4000E
ELWr321/23.6ELECTRIC CITY VORTAC108.6000E

Airport Services

Runway Information

Runway N/S

Dimensions: 1300 x 80 ft. / 396 x 24 m
Surface: turf
RUNWAY N  RUNWAY S
Traffic pattern: leftleft

Airport Ownership and Management from official FAA records

Ownership: Privately-owned
Owner: NETTIE H. KEYS
503 SOUTH CHURCH STREET
WALHALLA, SC 29691
Phone 864-638-3643
Manager: NETTIE H. KEYS
503 SOUTH CHURCH STREET
WALHALLA, SC 29691
Phone 864-638-3643
ANNA KEYS DAVISON (864-903-6248).

Additional Remarks

EMERGENCY USE ONLY.
FOR CD CTC ATLANTA ARTCC AT 770-210-7692.

Instrument Procedures

There are no published instrument procedures at SC70.

Some nearby airports with instrument procedures:

KCEU - Oconee County Regional Airport (10 nm E)
KTOC - Toccoa Airport-RG Letourneau Field (13 nm SW)
KLQK - Pickens County Airport (20 nm E)
KAND - Anderson Regional Airport (23 nm SE)
18A - Franklin-Hart Airport (23 nm S)
 
Loc | Ops | Rwys | IFR | FBO | Links
Com | Nav | Svcs | Stats | Notes
Area around SC70 (Anna's Airport)
 
Road maps at: MapQuest Bing Google
 
Aerial photo
No photo
 
Sectional chart

 
Airport distance calculator
Flying to Anna's Airport? Find the distance to fly.

From to SC70

Sunrise and sunset
Times for 28-Nov-2021
 Local
(UTC-5)
 Zulu
(UTC)
Morning civil twilight06:5211:52
Sunrise07:2012:20
Sunset17:2122:21
Evening civil twilight17:4822:48

Current date and time
Zulu (UTC)  28-Nov-2021 22:29:39
Local (UTC-5)  28-Nov-2021 17:29:39
 
METAR
KCEU 
11nm E 
282154Z AUTO 00000KT 10SM CLR 16/01 A2990 RMK AO2 SLP121 T01560006
KTOC 
13nm SW 
282215Z AUTO 31004KT 10SM CLR 16/M01 A2991 RMK AO2 T01571015
KLQK 
20nm E 
282215Z AUTO 00000KT 10SM CLR 14/00 A2989 RMK AO2 T01360000
TAF
KAND 
23nm SE 
281720Z 2818/2918 25006KT P6SM BKN250 FM290000 29006KT P6SM SCT250 FM291300 01007KT P6SM FEW250
NOTAMs
Click for the latest NOTAMs
NOTAMs are issued by the DoD/FAA and will open in a separate window not controlled by AirNav.

 

 
 

Would you like to see your business listed on this page?

 If your business provides an interesting product or service to pilots, flight crews, aircraft, or users of the Anna's Airport, you should consider listing it here.  To start the listing process, click on the button below
 
Add a business
 

Other Pages about Anna's Airport

Update a link
 
Copyright © AirNav, LLC. All rights reserved. Privacy Policy  Contact